createdAt,value
2023-03-13T00:00:35.916Z,11.50
2023-03-13T00:01:36.001Z,11.48
2023-03-13T00:02:35.309Z,11.47
2023-03-13T00:03:34.754Z,11.47
2023-03-13T00:04:34.390Z,11.49
2023-03-13T00:05:34.619Z,11.52
2023-03-13T00:06:35.218Z,11.52
2023-03-13T00:07:34.028Z,11.51
2023-03-13T00:08:34.394Z,11.51
2023-03-13T00:09:34.777Z,11.51
2023-03-13T00:10:36.560Z,11.48
2023-03-13T00:11:33.324Z,11.49
2023-03-13T00:12:35.365Z,11.52
2023-03-13T00:13:34.256Z,11.51
2023-03-13T00:14:34.841Z,11.52
2023-03-13T00:16:04.655Z,11.53
2023-03-13T00:16:35.915Z,11.54
2023-03-13T00:17:35.263Z,11.54
2023-03-13T00:18:35.135Z,11.55
2023-03-13T00:19:34.737Z,11.58
2023-03-13T00:20:35.254Z,11.59
2023-03-13T00:21:34.489Z,11.59
2023-03-13T00:22:34.922Z,11.58
2023-03-13T00:23:35.393Z,11.59
2023-03-13T00:24:34.836Z,11.58
2023-03-13T00:25:35.566Z,11.55
2023-03-13T00:26:34.997Z,11.53
2023-03-13T00:27:34.386Z,11.53
2023-03-13T00:28:34.726Z,11.57
2023-03-13T00:29:35.131Z,11.60
2023-03-13T00:30:35.040Z,11.59
2023-03-13T00:31:35.069Z,11.57
2023-03-13T00:32:34.508Z,11.59
2023-03-13T00:33:34.647Z,11.60
2023-03-13T00:34:34.693Z,11.61
2023-03-13T00:35:35.448Z,11.63
2023-03-13T00:36:34.292Z,11.62
2023-03-13T00:37:34.829Z,11.60
2023-03-13T00:38:35.250Z,11.59
2023-03-13T00:39:34.373Z,11.63
2023-03-13T00:40:35.011Z,11.63
2023-03-13T00:41:34.923Z,11.61
2023-03-13T00:42:35.032Z,11.60
2023-03-13T00:43:34.867Z,11.61
2023-03-13T00:44:35.050Z,11.61
2023-03-13T00:45:35.261Z,11.60
2023-03-13T00:46:35.083Z,11.62
2023-03-13T00:47:34.695Z,11.62
2023-03-13T00:48:34.839Z,11.63
2023-03-13T00:49:35.066Z,11.64
2023-03-13T00:50:34.961Z,11.61
2023-03-13T00:51:34.989Z,11.60
2023-03-13T00:52:34.218Z,11.59
2023-03-13T00:53:34.489Z,11.59
2023-03-13T00:54:34.664Z,11.60
2023-03-13T00:55:34.767Z,11.60
2023-03-13T00:56:35.087Z,11.60
2023-03-13T00:57:34.636Z,11.60
2023-03-13T00:58:34.687Z,11.60
2023-03-13T00:59:34.959Z,11.62
2023-03-13T01:00:35.908Z,11.64
2023-03-13T01:01:39.680Z,11.64
2023-03-13T01:02:35.448Z,11.64
2023-03-13T01:03:35.702Z,11.60
2023-03-13T01:04:35.354Z,11.60
2023-03-13T01:05:35.078Z,11.60
2023-03-13T01:06:34.922Z,11.61
2023-03-13T01:07:35.116Z,11.61
2023-03-13T01:08:34.458Z,11.59
2023-03-13T01:09:34.527Z,11.59
2023-03-13T01:10:35.027Z,11.59
2023-03-13T01:11:34.709Z,11.56
2023-03-13T01:12:34.885Z,11.57
2023-03-13T01:13:35.328Z,11.53
2023-03-13T01:14:34.424Z,11.55
2023-03-13T01:15:35.436Z,11.56
2023-03-13T01:16:35.174Z,11.56
2023-03-13T01:17:34.700Z,11.59
2023-03-13T01:18:34.912Z,11.60
2023-03-13T01:19:34.724Z,11.59
2023-03-13T01:20:34.855Z,11.58
2023-03-13T01:21:34.829Z,11.57
2023-03-13T01:22:35.381Z,11.55
2023-03-13T01:23:34.179Z,11.56
2023-03-13T01:24:34.652Z,11.53
2023-03-13T01:25:34.861Z,11.53
2023-03-13T01:26:34.863Z,11.51
2023-03-13T01:27:35.319Z,11.51
2023-03-13T01:28:34.566Z,11.51
2023-03-13T01:29:34.617Z,11.51
2023-03-13T01:30:35.869Z,11.53
2023-03-13T01:31:35.251Z,11.53
2023-03-13T01:32:34.695Z,11.54
2023-03-13T01:33:34.864Z,11.55
2023-03-13T01:34:35.003Z,11.54
2023-03-13T01:35:34.238Z,11.55
2023-03-13T01:36:34.974Z,11.54
2023-03-13T01:37:35.152Z,11.56
2023-03-13T01:38:34.107Z,11.56
2023-03-13T01:39:35.002Z,11.55
2023-03-13T01:40:34.242Z,11.55
2023-03-13T01:41:34.387Z,11.57
2023-03-13T01:42:39.612Z,11.57
2023-03-13T01:43:40.664Z,11.51
2023-03-13T01:44:39.640Z,11.50
2023-03-13T01:45:34.711Z,11.51
2023-03-13T01:46:39.947Z,11.53
2023-03-13T01:47:35.007Z,11.54
2023-03-13T01:48:34.097Z,11.54
2023-03-13T01:49:34.407Z,11.56
2023-03-13T01:50:34.843Z,11.57
2023-03-13T01:51:34.731Z,11.55
2023-03-13T01:52:34.454Z,11.53
2023-03-13T01:53:34.875Z,11.51
2023-03-13T01:54:34.963Z,11.49
2023-03-13T01:55:34.880Z,11.50
2023-03-13T01:56:35.135Z,11.52
2023-03-13T01:57:34.473Z,11.54
2023-03-13T01:58:35.005Z,11.54
2023-03-13T01:59:34.166Z,11.52
2023-03-13T02:00:35.741Z,11.51
2023-03-13T02:01:35.482Z,11.51
2023-03-13T02:02:34.783Z,11.52
2023-03-13T02:03:34.754Z,11.53
2023-03-13T02:04:34.440Z,11.55
2023-03-13T02:05:34.711Z,11.59
2023-03-13T02:06:34.821Z,11.59
2023-03-13T02:07:34.962Z,11.57
2023-03-13T02:08:34.798Z,11.57
2023-03-13T02:09:34.835Z,11.57
2023-03-13T02:10:34.764Z,11.57
2023-03-13T02:11:35.122Z,11.57
2023-03-13T02:12:34.480Z,11.58
2023-03-13T02:13:34.680Z,11.58
2023-03-13T02:14:40.726Z,11.60
2023-03-13T02:15:35.359Z,11.60
2023-03-13T02:16:34.365Z,11.61
2023-03-13T02:17:34.919Z,11.61
2023-03-13T02:18:35.233Z,11.56
2023-03-13T02:19:34.198Z,11.54
2023-03-13T02:20:34.581Z,11.51
2023-03-13T02:21:34.446Z,11.52
2023-03-13T02:22:34.787Z,11.50
2023-03-13T02:23:34.472Z,11.48
2023-03-13T02:24:34.351Z,11.49
2023-03-13T02:25:34.950Z,11.48
2023-03-13T02:26:35.341Z,11.48
2023-03-13T02:27:35.150Z,11.47
2023-03-13T02:28:34.109Z,11.45
2023-03-13T02:29:34.222Z,11.45
2023-03-13T02:30:34.500Z,11.44
2023-03-13T02:31:35.349Z,11.42
2023-03-13T02:32:36.054Z,11.45
2023-03-13T02:33:34.809Z,11.46
2023-03-13T02:34:34.604Z,11.47
2023-03-13T02:35:35.749Z,11.42
2023-03-13T02:36:34.875Z,11.44
2023-03-13T02:37:34.794Z,11.47
2023-03-13T02:38:34.724Z,11.48
2023-03-13T02:39:35.295Z,11.47
2023-03-13T02:40:34.734Z,11.45
2023-03-13T02:41:34.536Z,11.46
2023-03-13T02:42:34.740Z,11.47
2023-03-13T02:43:34.572Z,11.48
2023-03-13T02:44:34.503Z,11.50
2023-03-13T02:45:34.622Z,11.50
2023-03-13T02:46:35.061Z,11.51
2023-03-13T02:47:34.476Z,11.52
2023-03-13T02:48:34.605Z,11.55
2023-03-13T02:49:34.417Z,11.57
2023-03-13T02:50:34.771Z,11.56
2023-03-13T02:51:34.960Z,11.56
2023-03-13T02:52:35.186Z,11.55
2023-03-13T02:53:34.942Z,11.55
2023-03-13T02:54:35.549Z,11.51
2023-03-13T02:55:34.977Z,11.52
2023-03-13T02:56:34.306Z,11.54
2023-03-13T02:57:34.837Z,11.55
2023-03-13T02:58:35.683Z,11.56
2023-03-13T02:59:34.505Z,11.55
2023-03-13T03:01:06.605Z,11.58
2023-03-13T03:01:37.162Z,11.61
2023-03-13T03:02:34.620Z,11.65
2023-03-13T03:03:35.215Z,11.65
2023-03-13T03:04:34.900Z,11.67
2023-03-13T03:05:35.472Z,11.63
2023-03-13T03:06:35.019Z,11.61
2023-03-13T03:07:34.230Z,11.62
2023-03-13T03:08:34.822Z,11.64
2023-03-13T03:09:35.285Z,11.64
2023-03-13T03:10:34.475Z,11.65
2023-03-13T03:11:35.361Z,11.67
2023-03-13T03:12:34.638Z,11.69
2023-03-13T03:13:34.650Z,11.68
2023-03-13T03:14:34.655Z,11.67
2023-03-13T03:15:35.492Z,11.67
2023-03-13T03:16:34.732Z,11.68
2023-03-13T03:17:35.111Z,11.71
2023-03-13T03:18:34.731Z,11.71
2023-03-13T03:19:34.970Z,11.70
2023-03-13T03:20:35.174Z,11.71
2023-03-13T03:21:34.279Z,11.71
2023-03-13T03:22:34.424Z,11.73
2023-03-13T03:23:34.426Z,11.75
2023-03-13T03:24:34.849Z,11.74
2023-03-13T03:25:35.235Z,11.75
2023-03-13T03:26:34.829Z,11.77
2023-03-13T03:27:35.528Z,11.80
2023-03-13T03:28:34.702Z,11.81
2023-03-13T03:29:35.040Z,11.81
2023-03-13T03:30:34.421Z,11.80
2023-03-13T03:31:35.373Z,11.80
2023-03-13T03:32:34.597Z,11.80
2023-03-13T03:33:34.576Z,11.80
2023-03-13T03:34:36.058Z,11.82
2023-03-13T03:35:34.190Z,11.84
2023-03-13T03:36:34.319Z,11.85
2023-03-13T03:37:34.378Z,11.85
2023-03-13T03:38:34.453Z,11.88
2023-03-13T03:39:34.745Z,11.87
2023-03-13T03:40:35.557Z,11.86
2023-03-13T03:41:35.535Z,11.84
2023-03-13T03:42:34.764Z,11.86
2023-03-13T03:43:34.469Z,11.88
2023-03-13T03:44:34.480Z,11.89
2023-03-13T03:45:35.598Z,11.92
2023-03-13T03:46:35.143Z,11.94
2023-03-13T03:47:34.497Z,11.94
2023-03-13T03:48:34.643Z,11.94
2023-03-13T03:49:34.433Z,11.95
2023-03-13T03:50:35.110Z,11.97
2023-03-13T03:51:34.656Z,11.97
2023-03-13T03:52:34.688Z,11.99
2023-03-13T03:53:34.911Z,12.00
2023-03-13T03:54:35.416Z,12.00
2023-03-13T03:56:34.271Z,12.07
2023-03-13T03:57:34.478Z,12.07
2023-03-13T03:58:35.053Z,12.06
2023-03-13T03:59:34.110Z,12.04
2023-03-13T04:00:35.641Z,12.03
2023-03-13T04:01:35.056Z,12.02
2023-03-13T04:02:34.825Z,12.03
2023-03-13T04:03:35.446Z,12.05
2023-03-13T04:04:34.961Z,12.05
2023-03-13T04:05:40.394Z,12.07
2023-03-13T04:06:35.196Z,12.08
2023-03-13T04:07:34.595Z,12.10
2023-03-13T04:08:34.894Z,12.11
2023-03-13T04:09:35.325Z,12.12
2023-03-13T04:10:35.266Z,12.10
2023-03-13T04:11:34.840Z,12.08
2023-03-13T04:12:35.664Z,12.09
2023-03-13T04:13:34.998Z,12.09
2023-03-13T04:14:33.850Z,12.10
2023-03-13T04:15:35.752Z,12.13
2023-03-13T04:16:34.921Z,12.16
2023-03-13T04:17:42.591Z,12.16
2023-03-13T04:18:34.571Z,12.17
2023-03-13T04:19:35.218Z,12.16
2023-03-13T04:20:34.575Z,12.17
2023-03-13T04:21:34.651Z,12.16
2023-03-13T04:22:34.737Z,12.16
2023-03-13T04:23:34.824Z,12.15
2023-03-13T04:24:34.481Z,12.14
2023-03-13T04:25:35.240Z,12.19
2023-03-13T04:26:34.185Z,12.22
2023-03-13T04:27:34.612Z,12.22
2023-03-13T04:28:34.930Z,12.22
2023-03-13T04:29:35.605Z,12.22
2023-03-13T04:30:35.363Z,12.21
2023-03-13T04:31:35.186Z,12.19
2023-03-13T04:32:35.354Z,12.20
2023-03-13T04:33:34.948Z,12.25
2023-03-13T04:34:35.250Z,12.25
2023-03-13T04:35:34.801Z,12.31
2023-03-13T04:36:35.241Z,12.38
2023-03-13T04:37:34.363Z,12.45
2023-03-13T04:38:34.622Z,12.46
2023-03-13T04:39:34.671Z,12.47
2023-03-13T04:40:35.466Z,12.47
2023-03-13T04:41:34.513Z,12.45
2023-03-13T04:42:34.236Z,12.49
2023-03-13T04:43:34.251Z,12.54
2023-03-13T04:44:34.569Z,12.53
2023-03-13T04:45:35.243Z,12.60
2023-03-13T04:46:34.940Z,12.60
2023-03-13T04:47:34.444Z,12.61
2023-03-13T04:48:34.415Z,12.58
2023-03-13T04:49:34.485Z,12.63
2023-03-13T04:50:36.000Z,12.53
2023-03-13T04:51:34.506Z,12.48
2023-03-13T04:52:34.432Z,12.53
2023-03-13T04:53:34.738Z,12.55
2023-03-13T04:54:34.350Z,12.57
2023-03-13T04:55:34.803Z,12.59
2023-03-13T04:56:54.315Z,12.59
2023-03-13T04:57:34.518Z,12.61
2023-03-13T04:58:34.696Z,12.59
2023-03-13T04:59:35.120Z,12.59
2023-03-13T05:00:35.497Z,12.61
2023-03-13T05:01:35.600Z,12.61
2023-03-13T05:02:34.794Z,12.60
2023-03-13T05:03:35.100Z,12.59
2023-03-13T05:04:34.360Z,12.59
2023-03-13T05:05:35.548Z,12.60
2023-03-13T05:06:34.818Z,12.62
2023-03-13T05:07:35.208Z,12.65
2023-03-13T05:08:34.652Z,12.68
2023-03-13T05:10:02.740Z,12.69
2023-03-13T05:10:35.855Z,12.69
2023-03-13T05:11:35.193Z,12.69
2023-03-13T05:12:35.048Z,12.71
2023-03-13T05:14:02.452Z,12.71
2023-03-13T05:14:35.432Z,12.72
2023-03-13T05:15:35.465Z,12.77
2023-03-13T05:16:35.574Z,12.79
2023-03-13T05:17:35.315Z,12.78
2023-03-13T05:18:35.060Z,12.79
2023-03-13T05:19:34.769Z,12.79
2023-03-13T05:20:35.144Z,12.82
2023-03-13T05:21:34.436Z,12.84
2023-03-13T05:22:35.198Z,12.85
2023-03-13T05:23:35.355Z,12.83
2023-03-13T05:24:34.934Z,12.81
2023-03-13T05:25:35.891Z,12.83
2023-03-13T05:26:34.934Z,12.85
2023-03-13T05:27:35.329Z,12.84
2023-03-13T05:28:34.850Z,12.82
2023-03-13T05:29:35.314Z,12.84
2023-03-13T05:30:35.897Z,12.84
2023-03-13T05:31:35.762Z,12.86
2023-03-13T05:32:35.926Z,12.87
2023-03-13T05:33:34.774Z,12.88
2023-03-13T05:34:35.348Z,12.89
2023-03-13T05:35:35.793Z,12.90
2023-03-13T05:36:35.184Z,12.92
2023-03-13T05:37:35.149Z,12.91
2023-03-13T05:38:35.012Z,12.90
2023-03-13T05:39:34.716Z,12.92
2023-03-13T05:40:35.492Z,12.93
2023-03-13T05:41:35.099Z,12.94
2023-03-13T05:42:34.398Z,12.94
2023-03-13T05:43:34.710Z,12.92
2023-03-13T05:44:34.876Z,12.92
2023-03-13T05:45:35.651Z,12.93
2023-03-13T05:46:35.721Z,12.93
2023-03-13T05:47:34.605Z,12.94
2023-03-13T05:48:35.068Z,12.94
2023-03-13T05:49:34.718Z,12.96
2023-03-13T05:50:35.872Z,12.94
2023-03-13T05:51:35.151Z,12.95
2023-03-13T05:52:34.997Z,12.99
2023-03-13T05:53:34.519Z,13.00
2023-03-13T05:54:34.751Z,13.00
2023-03-13T05:55:35.762Z,12.99
2023-03-13T05:56:35.302Z,13.00
2023-03-13T05:57:35.298Z,13.02
2023-03-13T05:58:34.967Z,13.02
2023-03-13T05:59:35.585Z,13.01
2023-03-13T06:00:36.690Z,13.01
2023-03-13T06:01:35.648Z,13.02
2023-03-13T06:02:35.186Z,13.04
2023-03-13T06:03:35.147Z,13.05
2023-03-13T06:04:35.459Z,13.06
2023-03-13T06:05:35.390Z,13.06
2023-03-13T06:06:34.912Z,13.08
2023-03-13T06:07:36.093Z,13.08
2023-03-13T06:08:35.386Z,13.07
2023-03-13T06:09:35.365Z,13.06
2023-03-13T06:10:35.773Z,13.07
2023-03-13T06:11:35.933Z,13.08
2023-03-13T06:12:36.762Z,13.10
2023-03-13T06:13:35.019Z,13.11
2023-03-13T06:14:34.963Z,13.11
2023-03-13T06:15:35.895Z,13.14
2023-03-13T06:16:35.721Z,13.16
2023-03-13T06:17:35.497Z,13.17
2023-03-13T06:18:35.651Z,13.17
2023-03-13T06:19:35.289Z,13.17
2023-03-13T06:20:35.419Z,13.17
2023-03-13T06:21:35.527Z,13.18
2023-03-13T06:22:35.473Z,13.18
2023-03-13T06:23:35.554Z,13.16
2023-03-13T06:24:35.286Z,13.18
2023-03-13T06:25:35.440Z,13.18
2023-03-13T06:26:34.771Z,13.19
2023-03-13T06:27:35.923Z,13.19
2023-03-13T06:28:35.647Z,13.20
2023-03-13T06:29:35.988Z,13.22
2023-03-13T06:30:35.656Z,13.22
2023-03-13T06:31:35.789Z,13.22
2023-03-13T06:32:36.428Z,13.24
2023-03-13T06:33:35.522Z,13.24
2023-03-13T06:34:35.332Z,13.23
2023-03-13T06:35:46.278Z,13.23
2023-03-13T06:36:40.445Z,13.27
2023-03-13T06:37:35.343Z,13.27
2023-03-13T06:38:35.339Z,13.30
2023-03-13T06:39:35.121Z,13.33
2023-03-13T06:40:35.992Z,13.33
2023-03-13T06:41:35.081Z,13.34
2023-03-13T06:42:34.570Z,13.36
2023-03-13T06:43:35.807Z,13.40
2023-03-13T06:44:42.503Z,13.39
2023-03-13T06:45:36.459Z,13.39
2023-03-13T06:46:43.261Z,13.41
2023-03-13T06:47:35.257Z,13.41
2023-03-13T06:48:34.856Z,13.41
2023-03-13T06:49:35.798Z,13.43
2023-03-13T06:50:35.738Z,13.46
2023-03-13T06:51:35.594Z,13.48
2023-03-13T06:52:44.865Z,13.48
2023-03-13T06:53:35.788Z,13.49
2023-03-13T06:54:35.545Z,13.57
2023-03-13T06:55:35.610Z,13.58
2023-03-13T06:56:35.618Z,13.57
2023-03-13T06:57:35.611Z,13.57
2023-03-13T06:58:46.466Z,13.65
2023-03-13T06:59:35.313Z,13.73
2023-03-13T07:00:51.170Z,13.78
2023-03-13T07:01:36.825Z,13.71
2023-03-13T07:02:36.857Z,13.66
2023-03-13T07:03:36.830Z,13.74
2023-03-13T07:04:36.935Z,13.83
2023-03-13T07:05:36.035Z,13.84
2023-03-13T07:06:38.105Z,13.84
2023-03-13T07:07:45.748Z,13.88
2023-03-13T07:08:36.403Z,13.94
2023-03-13T07:09:35.816Z,13.88
2023-03-13T07:10:38.266Z,13.96
2023-03-13T07:11:41.868Z,14.00
2023-03-13T07:12:35.689Z,13.97
2023-03-13T07:13:35.402Z,13.92
2023-03-13T07:14:35.472Z,13.89
2023-03-13T07:15:36.446Z,13.88
2023-03-13T07:16:35.594Z,13.87
2023-03-13T07:17:35.656Z,13.86
2023-03-13T07:18:35.468Z,13.84
2023-03-13T07:19:35.821Z,13.85
2023-03-13T07:20:36.046Z,13.84
2023-03-13T07:21:35.191Z,13.84
2023-03-13T07:22:35.620Z,13.86
2023-03-13T07:23:35.827Z,13.88
2023-03-13T07:24:36.464Z,13.89
2023-03-13T07:25:35.741Z,13.88
2023-03-13T07:26:36.317Z,13.88
2023-03-13T07:27:35.301Z,13.88
2023-03-13T07:28:37.805Z,13.84
2023-03-13T07:29:35.465Z,13.81
2023-03-13T07:30:36.340Z,13.82
2023-03-13T07:31:35.742Z,13.82
2023-03-13T07:32:35.908Z,13.80
2023-03-13T07:33:36.361Z,13.83
2023-03-13T07:34:35.574Z,13.86
2023-03-13T07:35:35.715Z,13.85
2023-03-13T07:36:35.813Z,13.86
2023-03-13T07:37:35.795Z,13.90
2023-03-13T07:38:36.374Z,13.90
2023-03-13T07:39:35.635Z,13.90
2023-03-13T07:40:36.343Z,13.89
2023-03-13T07:41:35.962Z,13.90
2023-03-13T07:42:36.273Z,13.94
2023-03-13T07:43:35.799Z,13.92
2023-03-13T07:44:35.765Z,13.92
2023-03-13T07:45:36.416Z,13.93
2023-03-13T07:46:36.198Z,13.92
2023-03-13T07:47:35.574Z,13.91
2023-03-13T07:48:35.611Z,13.91
2023-03-13T07:49:39.257Z,13.89
2023-03-13T07:50:35.744Z,13.94
2023-03-13T07:51:50.562Z,13.99
2023-03-13T07:52:35.585Z,13.97
2023-03-13T07:53:37.629Z,13.98
2023-03-13T07:54:36.304Z,14.01
2023-03-13T07:55:36.053Z,14.07
2023-03-13T07:56:35.697Z,14.08
2023-03-13T07:57:36.075Z,14.10
2023-03-13T07:58:35.997Z,14.12
2023-03-13T07:59:35.628Z,14.13
2023-03-13T08:00:36.749Z,14.12
2023-03-13T08:01:39.322Z,14.11
2023-03-13T08:02:35.705Z,14.12
2023-03-13T08:03:36.144Z,14.14
2023-03-13T08:05:35.712Z,14.17
2023-03-13T08:06:36.222Z,14.15
2023-03-13T08:07:35.516Z,14.13
2023-03-13T08:08:36.099Z,14.15
2023-03-13T08:09:35.953Z,14.15
2023-03-13T08:10:37.128Z,14.17
2023-03-13T08:11:35.538Z,14.16
2023-03-13T08:12:35.767Z,14.18
2023-03-13T08:13:36.542Z,14.18
2023-03-13T08:14:36.010Z,14.18
2023-03-13T08:15:36.334Z,14.18
2023-03-13T08:16:36.333Z,14.21
2023-03-13T08:17:35.568Z,14.17
2023-03-13T08:18:36.263Z,14.18
2023-03-13T08:19:36.175Z,14.18
2023-03-13T08:20:36.561Z,14.18
2023-03-13T08:21:36.536Z,14.19
2023-03-13T08:22:36.237Z,14.21
2023-03-13T08:23:35.886Z,14.21
2023-03-13T08:24:36.240Z,14.22
2023-03-13T08:25:36.399Z,14.20
2023-03-13T08:26:36.001Z,14.20
2023-03-13T08:27:35.938Z,14.23
2023-03-13T08:28:36.412Z,14.22
2023-03-13T08:29:35.984Z,14.17
2023-03-13T08:30:36.019Z,14.17
2023-03-13T08:31:36.789Z,14.20
2023-03-13T08:32:36.285Z,14.24
2023-03-13T08:33:35.662Z,14.26
2023-03-13T08:34:35.813Z,14.25
2023-03-13T08:35:36.751Z,14.23
2023-03-13T08:36:36.984Z,14.20
2023-03-13T08:37:35.312Z,14.20
2023-03-13T08:38:35.295Z,14.23
2023-03-13T08:39:35.972Z,14.21
2023-03-13T08:40:35.752Z,14.18
2023-03-13T08:41:36.654Z,14.18
2023-03-13T08:43:14.065Z,14.21
2023-03-13T08:43:37.818Z,14.21
2023-03-13T08:45:19.831Z,14.22
2023-03-13T08:45:37.236Z,14.21
2023-03-13T08:46:35.196Z,14.24
2023-03-13T08:47:35.147Z,14.25
2023-03-13T08:48:35.222Z,14.22
2023-03-13T08:49:35.448Z,14.17
2023-03-13T08:50:36.594Z,14.17
2023-03-13T08:51:36.006Z,14.18
2023-03-13T08:52:34.937Z,14.19
2023-03-13T08:53:35.232Z,14.19
2023-03-13T08:54:35.593Z,14.21
2023-03-13T08:55:36.042Z,14.21
2023-03-13T08:56:35.647Z,14.22
2023-03-13T08:57:36.068Z,14.24
2023-03-13T08:58:35.541Z,14.30
2023-03-13T08:59:36.496Z,14.28
2023-03-13T09:00:36.800Z,14.23
2023-03-13T09:01:41.595Z,14.23
2023-03-13T09:02:36.146Z,14.27
2023-03-13T09:03:36.164Z,14.28
2023-03-13T09:04:35.968Z,14.34
2023-03-13T09:05:53.023Z,14.34
2023-03-13T09:06:36.132Z,14.35
2023-03-13T09:07:40.823Z,14.40
2023-03-13T09:08:36.040Z,14.44
2023-03-13T09:09:37.752Z,14.47
2023-03-13T09:10:35.592Z,14.48
2023-03-13T09:11:35.454Z,14.50
2023-03-13T09:12:44.673Z,14.46
2023-03-13T09:13:35.818Z,14.38
2023-03-13T09:14:36.890Z,14.49
2023-03-13T09:15:35.785Z,14.54
2023-03-13T09:16:36.106Z,14.63
2023-03-13T09:17:36.069Z,14.59
2023-03-13T09:18:35.815Z,14.53
2023-03-13T09:19:36.192Z,14.56
2023-03-13T09:20:35.361Z,14.68
2023-03-13T09:21:36.082Z,14.74
2023-03-13T09:22:35.709Z,14.77
2023-03-13T09:23:35.981Z,14.72
2023-03-13T09:24:35.879Z,14.72
2023-03-13T09:25:36.356Z,14.68
2023-03-13T09:26:37.061Z,14.60
2023-03-13T09:27:49.508Z,14.62
2023-03-13T09:28:35.835Z,14.65
2023-03-13T09:29:35.626Z,14.59
2023-03-13T09:30:36.235Z,14.63
2023-03-13T09:31:35.674Z,14.67
2023-03-13T09:32:35.994Z,14.67
2023-03-13T09:33:35.716Z,14.63
2023-03-13T09:34:36.114Z,14.67
2023-03-13T09:35:36.130Z,14.72
2023-03-13T09:36:36.627Z,14.67
2023-03-13T09:37:35.876Z,14.71
2023-03-13T09:38:36.060Z,14.68
2023-03-13T09:39:35.419Z,14.71
2023-03-13T09:40:36.386Z,14.68
2023-03-13T09:41:35.314Z,14.68
2023-03-13T09:42:35.967Z,14.65
2023-03-13T09:43:36.343Z,14.64
2023-03-13T09:44:35.601Z,14.73
2023-03-13T09:45:44.394Z,14.76
2023-03-13T09:46:36.388Z,14.71
2023-03-13T09:47:35.380Z,14.66
2023-03-13T09:48:35.690Z,14.68
2023-03-13T09:49:35.886Z,14.68
2023-03-13T09:50:36.274Z,14.70
2023-03-13T09:51:50.019Z,14.73
2023-03-13T09:52:35.706Z,14.77
2023-03-13T09:53:36.108Z,14.79
2023-03-13T09:54:35.376Z,14.78
2023-03-13T09:55:49.733Z,14.78
2023-03-13T09:56:35.968Z,14.85
2023-03-13T09:57:36.318Z,14.94
2023-03-13T09:58:35.653Z,14.97
2023-03-13T09:59:35.921Z,15.01
2023-03-13T10:00:37.580Z,15.05
2023-03-13T10:01:36.730Z,15.10
2023-03-13T10:02:35.959Z,15.11
2023-03-13T10:03:36.680Z,15.20
2023-03-13T10:04:36.037Z,15.17
2023-03-13T10:05:54.669Z,15.19
2023-03-13T10:06:36.534Z,15.19
2023-03-13T10:07:36.482Z,15.20
2023-03-13T10:08:36.208Z,15.19
2023-03-13T10:09:35.768Z,15.25
2023-03-13T10:10:36.204Z,15.22
2023-03-13T10:11:35.620Z,15.20
2023-03-13T10:12:36.534Z,15.19
2023-03-13T10:13:35.949Z,15.18
2023-03-13T10:14:36.250Z,15.20
2023-03-13T10:15:36.405Z,15.26
2023-03-13T10:16:36.240Z,15.29
2023-03-13T10:17:35.828Z,15.30
2023-03-13T10:18:36.517Z,15.24
2023-03-13T10:19:36.871Z,15.22
2023-03-13T10:20:37.578Z,15.18
2023-03-13T10:21:37.075Z,15.18
2023-03-13T10:22:38.667Z,15.18
2023-03-13T10:23:36.748Z,15.20
2023-03-13T10:24:36.774Z,15.25
2023-03-13T10:25:36.519Z,15.23
2023-03-13T10:26:36.661Z,15.25
2023-03-13T10:28:36.178Z,15.30
2023-03-13T10:29:36.293Z,15.27
2023-03-13T10:30:36.300Z,15.33
2023-03-13T10:31:35.937Z,15.35
2023-03-13T10:32:36.940Z,15.35
2023-03-13T10:33:37.195Z,15.34
2023-03-13T10:34:36.756Z,15.34
2023-03-13T10:35:36.848Z,15.36
2023-03-13T10:36:37.173Z,15.40
2023-03-13T10:37:35.822Z,15.43
2023-03-13T10:38:39.587Z,15.46
2023-03-13T10:39:36.563Z,15.44
2023-03-13T10:40:36.106Z,15.43
2023-03-13T10:41:35.537Z,15.48
2023-03-13T10:42:35.741Z,15.48
2023-03-13T10:43:36.513Z,15.54
2023-03-13T10:45:38.709Z,15.58
2023-03-13T10:46:35.870Z,15.52
2023-03-13T10:47:36.421Z,15.49
2023-03-13T10:48:35.857Z,15.48
2023-03-13T10:49:36.204Z,15.47
2023-03-13T10:50:35.935Z,15.47
2023-03-13T10:51:37.038Z,15.53
2023-03-13T10:52:35.474Z,15.59
2023-03-13T10:53:36.099Z,15.57
2023-03-13T10:54:35.613Z,15.58
2023-03-13T10:55:36.656Z,15.59
2023-03-13T10:56:36.006Z,15.59
2023-03-13T10:57:35.545Z,15.60
2023-03-13T10:58:35.955Z,15.64
2023-03-13T10:59:37.303Z,15.73
2023-03-13T11:00:38.266Z,15.77
2023-03-13T11:01:37.761Z,15.74
2023-03-13T11:02:37.604Z,15.73
2023-03-13T11:03:37.843Z,15.76
2023-03-13T11:04:37.689Z,15.76
2023-03-13T11:05:37.363Z,15.71
2023-03-13T11:06:36.532Z,15.82
2023-03-13T11:07:36.344Z,15.90
2023-03-13T11:08:36.476Z,16.04
2023-03-13T11:09:35.821Z,16.10
2023-03-13T11:10:36.381Z,16.15
2023-03-13T11:11:36.018Z,16.05
2023-03-13T11:12:35.383Z,16.10
2023-03-13T11:13:50.155Z,16.22
2023-03-13T11:14:36.017Z,16.30
2023-03-13T11:15:35.898Z,16.28
2023-03-13T11:16:36.788Z,16.24
2023-03-13T11:17:36.727Z,16.22
2023-03-13T11:18:36.456Z,16.24
2023-03-13T11:19:36.496Z,16.26
2023-03-13T11:20:36.858Z,16.27
2023-03-13T11:21:37.275Z,16.32
2023-03-13T11:22:36.492Z,16.34
2023-03-13T11:23:36.030Z,16.38
2023-03-13T11:24:36.301Z,16.34
2023-03-13T11:25:36.310Z,16.28
2023-03-13T11:26:36.235Z,16.20
2023-03-13T11:27:35.696Z,16.22
2023-03-13T11:28:36.265Z,16.29
2023-03-13T11:29:35.904Z,16.36
2023-03-13T11:30:42.077Z,16.36
2023-03-13T11:31:35.683Z,16.40
2023-03-13T11:32:36.683Z,16.34
2023-03-13T11:33:37.209Z,16.27
2023-03-13T11:34:35.808Z,16.31
2023-03-13T11:35:37.697Z,16.36
2023-03-13T11:36:36.372Z,16.33
2023-03-13T11:37:36.333Z,16.31
2023-03-13T11:38:44.215Z,16.31
2023-03-13T11:39:35.712Z,16.22
2023-03-13T11:40:36.712Z,16.32
2023-03-13T11:41:36.671Z,16.40
2023-03-13T11:42:36.717Z,16.42
2023-03-13T11:43:41.747Z,16.37
2023-03-13T11:44:35.939Z,16.39
2023-03-13T11:45:37.809Z,16.35
2023-03-13T11:46:37.465Z,16.33
2023-03-13T11:47:36.045Z,16.32
2023-03-13T11:48:35.939Z,16.31
2023-03-13T11:49:37.163Z,16.34
2023-03-13T11:50:50.433Z,16.35
2023-03-13T11:51:36.429Z,16.39
2023-03-13T11:52:36.016Z,16.45
2023-03-13T11:53:35.863Z,16.47
2023-03-13T11:54:36.114Z,16.55
2023-03-13T11:55:36.166Z,16.54
2023-03-13T11:56:35.430Z,16.51
2023-03-13T11:57:36.290Z,16.44
2023-03-13T11:58:40.993Z,16.45
2023-03-13T11:59:35.709Z,16.47
2023-03-13T12:00:38.377Z,16.53
2023-03-13T12:01:36.752Z,16.59
2023-03-13T12:02:37.267Z,16.63
2023-03-13T12:03:36.179Z,16.55
2023-03-13T12:04:35.661Z,16.50
2023-03-13T12:05:36.467Z,16.52
2023-03-13T12:06:42.869Z,16.53
2023-03-13T12:07:36.228Z,16.61
2023-03-13T12:08:36.111Z,16.69
2023-03-13T12:09:35.909Z,16.77
2023-03-13T12:10:36.720Z,16.75
2023-03-13T12:11:36.394Z,16.71
2023-03-13T12:12:35.792Z,16.78
2023-03-13T12:13:36.057Z,16.74
2023-03-13T12:14:49.602Z,16.64
2023-03-13T12:15:36.555Z,16.66
2023-03-13T12:16:35.638Z,16.72
2023-03-13T12:17:36.600Z,16.84
2023-03-13T12:18:36.532Z,16.88
2023-03-13T12:19:35.966Z,16.90
2023-03-13T12:20:35.608Z,16.91
2023-03-13T12:21:35.805Z,16.93
2023-03-13T12:22:36.055Z,16.88
2023-03-13T12:23:35.828Z,16.87
2023-03-13T12:24:36.077Z,16.86
2023-03-13T12:25:38.823Z,16.91
2023-03-13T12:26:50.088Z,16.89
2023-03-13T12:27:35.306Z,16.84
2023-03-13T12:28:52.170Z,16.86
2023-03-13T12:29:35.524Z,16.86
2023-03-13T12:30:36.372Z,16.81
2023-03-13T12:31:36.347Z,16.77
2023-03-13T12:33:38.093Z,16.90
2023-03-13T12:34:35.390Z,16.93
2023-03-13T12:35:35.769Z,16.98
2023-03-13T12:36:36.509Z,16.95
2023-03-13T12:37:35.800Z,16.98
2023-03-13T12:38:35.939Z,17.07
2023-03-13T12:39:36.846Z,17.08
2023-03-13T12:40:36.148Z,16.96
2023-03-13T12:41:35.793Z,16.99
2023-03-13T12:42:36.290Z,17.07
2023-03-13T12:43:36.012Z,17.06
2023-03-13T12:44:35.335Z,17.13
2023-03-13T12:45:36.514Z,17.17
2023-03-13T12:46:36.245Z,17.12
2023-03-13T12:47:35.920Z,17.13
2023-03-13T12:48:36.464Z,17.17
2023-03-13T12:49:36.044Z,17.20
2023-03-13T12:50:35.793Z,17.22
2023-03-13T12:51:36.122Z,17.16
2023-03-13T12:52:36.420Z,17.09
2023-03-13T12:53:36.407Z,17.06
2023-03-13T12:54:36.053Z,17.04
2023-03-13T12:55:36.217Z,16.96
2023-03-13T12:56:35.975Z,16.94
2023-03-13T12:57:36.274Z,16.93